sensor_id;sensor_type;location;lat;lon;timestamp;pressure;altitude;pressure_sealevel;temperature;humidity
9746;BME280;4912;50.836;12.958;2023-02-23T00:02:23;97440.38;;;10.86;77.27
9746;BME280;4912;50.836;12.958;2023-02-23T00:04:53;97441.63;;;10.85;77.65
9746;BME280;4912;50.836;12.958;2023-02-23T00:07:23;97427.78;;;10.85;77.35
9746;BME280;4912;50.836;12.958;2023-02-23T00:09:53;97434.00;;;10.95;77.17
9746;BME280;4912;50.836;12.958;2023-02-23T00:12:26;97427.00;;;10.99;76.80
9746;BME280;4912;50.836;12.958;2023-02-23T00:14:56;97431.00;;;10.98;76.75
9746;BME280;4912;50.836;12.958;2023-02-23T00:17:27;97432.34;;;11.03;76.57
9746;BME280;4912;50.836;12.958;2023-02-23T00:19:57;97431.56;;;11.02;76.54
9746;BME280;4912;50.836;12.958;2023-02-23T00:22:33;97426.63;;;11.06;76.20
9746;BME280;4912;50.836;12.958;2023-02-23T00:25:03;97419.63;;;11.11;75.99
9746;BME280;4912;50.836;12.958;2023-02-23T00:27:38;97425.94;;;11.12;75.70
9746;BME280;4912;50.836;12.958;2023-02-23T00:30:12;97429.47;;;11.12;75.75
9746;BME280;4912;50.836;12.958;2023-02-23T00:32:46;97430.50;;;11.15;75.65
9746;BME280;4912;50.836;12.958;2023-02-23T00:35:18;97435.09;;;11.18;75.71
9746;BME280;4912;50.836;12.958;2023-02-23T00:37:50;97433.34;;;11.20;75.11
9746;BME280;4912;50.836;12.958;2023-02-23T00:40:20;97428.66;;;11.26;74.80
9746;BME280;4912;50.836;12.958;2023-02-23T00:42:53;97425.97;;;11.32;74.86
9746;BME280;4912;50.836;12.958;2023-02-23T00:45:25;97419.75;;;11.37;74.52
9746;BME280;4912;50.836;12.958;2023-02-23T00:47:56;97411.94;;;11.35;74.72
9746;BME280;4912;50.836;12.958;2023-02-23T00:50:26;97418.41;;;11.32;75.03
9746;BME280;4912;50.836;12.958;2023-02-23T00:52:56;97418.81;;;11.25;75.01
9746;BME280;4912;50.836;12.958;2023-02-23T00:55:27;97424.16;;;11.29;74.75
9746;BME280;4912;50.836;12.958;2023-02-23T00:58:00;97414.81;;;11.26;74.99
9746;BME280;4912;50.836;12.958;2023-02-23T01:00:30;97413.28;;;11.25;75.30
9746;BME280;4912;50.836;12.958;2023-02-23T01:03:07;97422.84;;;11.24;75.12
9746;BME280;4912;50.836;12.958;2023-02-23T01:05:37;97415.03;;;11.23;75.19
9746;BME280;4912;50.836;12.958;2023-02-23T01:08:09;97429.16;;;11.25;75.44
9746;BME280;4912;50.836;12.958;2023-02-23T01:10:41;97422.44;;;11.31;74.87
9746;BME280;4912;50.836;12.958;2023-02-23T01:13:20;97413.84;;;11.29;74.98
9746;BME280;4912;50.836;12.958;2023-02-23T01:15:52;97412.69;;;11.36;74.95
9746;BME280;4912;50.836;12.958;2023-02-23T01:18:24;97424.53;;;11.36;74.84
9746;BME280;4912;50.836;12.958;2023-02-23T01:20:54;97426.03;;;11.37;74.58
9746;BME280;4912;50.836;12.958;2023-02-23T01:23:24;97417.72;;;11.37;74.65
9746;BME280;4912;50.836;12.958;2023-02-23T01:25:54;97416.56;;;11.44;74.59
9746;BME280;4912;50.836;12.958;2023-02-23T01:28:27;97412.97;;;11.38;74.75
9746;BME280;4912;50.836;12.958;2023-02-23T01:30:59;97404.38;;;11.36;75.04
9746;BME280;4912;50.836;12.958;2023-02-23T01:33:31;97398.56;;;11.34;75.38
9746;BME280;4912;50.836;12.958;2023-02-23T01:36:01;97405.16;;;11.36;75.26
9746;BME280;4912;50.836;12.958;2023-02-23T01:38:31;97402.47;;;11.42;74.96
9746;BME280;4912;50.836;12.958;2023-02-23T01:41:01;97402.94;;;11.40;74.65
9746;BME280;4912;50.836;12.958;2023-02-23T01:46:30;97400.63;;;11.39;74.92
9746;BME280;4912;50.836;12.958;2023-02-23T01:49:02;97401.19;;;11.43;74.83
9746;BME280;4912;50.836;12.958;2023-02-23T01:51:32;97390.88;;;11.43;74.70
9746;BME280;4912;50.836;12.958;2023-02-23T01:54:06;97392.88;;;11.43;74.79
9746;BME280;4912;50.836;12.958;2023-02-23T01:56:41;97381.78;;;11.43;75.00
9746;BME280;4912;50.836;12.958;2023-02-23T01:59:17;97380.56;;;11.44;74.88
9746;BME280;4912;50.836;12.958;2023-02-23T02:01:48;97373.78;;;11.45;74.68
9746;BME280;4912;50.836;12.958;2023-02-23T02:04:18;97378.34;;;11.48;74.86
9746;BME280;4912;50.836;12.958;2023-02-23T02:06:51;97379.75;;;11.58;74.44
9746;BME280;4912;50.836;12.958;2023-02-23T02:09:22;97367.59;;;11.56;74.43
9746;BME280;4912;50.836;12.958;2023-02-23T02:11:54;97364.75;;;11.50;74.75
9746;BME280;4912;50.836;12.958;2023-02-23T02:14:27;97355.16;;;11.45;75.16
9746;BME280;4912;50.836;12.958;2023-02-23T02:17:05;97352.84;;;11.44;75.14
9746;BME280;4912;50.836;12.958;2023-02-23T02:26:00;97344.00;;;11.40;75.47
9746;BME280;4912;50.836;12.958;2023-02-23T02:28:46;97353.63;;;11.44;75.49
9746;BME280;4912;50.836;12.958;2023-02-23T02:34:48;97348.84;;;11.45;75.55
9746;BME280;4912;50.836;12.958;2023-02-23T02:37:44;97345.78;;;11.43;75.28
9746;BME280;4912;50.836;12.958;2023-02-23T02:40:24;97347.06;;;11.42;75.24
9746;BME280;4912;50.836;12.958;2023-02-23T02:42:59;97342.47;;;11.39;75.48
9746;BME280;4912;50.836;12.958;2023-02-23T02:45:40;97343.22;;;11.39;75.38
9746;BME280;4912;50.836;12.958;2023-02-23T02:48:16;97344.28;;;11.42;75.01
9746;BME280;4912;50.836;12.958;2023-02-23T02:50:53;97354.59;;;11.41;75.14
9746;BME280;4912;50.836;12.958;2023-02-23T02:53:29;97348.16;;;11.50;75.01
9746;BME280;4912;50.836;12.958;2023-02-23T02:56:04;97351.69;;;11.50;74.83
9746;BME280;4912;50.836;12.958;2023-02-23T02:58:36;97345.66;;;11.52;74.71
9746;BME280;4912;50.836;12.958;2023-02-23T03:01:12;97351.50;;;11.54;74.60
9746;BME280;4912;50.836;12.958;2023-02-23T03:03:55;97346.34;;;11.47;74.73
9746;BME280;4912;50.836;12.958;2023-02-23T03:06:42;97356.31;;;11.39;75.14
9746;BME280;4912;50.836;12.958;2023-02-23T03:09:31;97359.91;;;11.45;75.02
9746;BME280;4912;50.836;12.958;2023-02-23T03:12:21;97353.75;;;11.56;74.62
9746;BME280;4912;50.836;12.958;2023-02-23T03:15:12;97359.66;;;11.63;74.08
9746;BME280;4912;50.836;12.958;2023-02-23T03:18:04;97356.34;;;11.59;74.35
9746;BME280;4912;50.836;12.958;2023-02-23T03:20:53;97351.63;;;11.65;74.12
9746;BME280;4912;50.836;12.958;2023-02-23T03:23:42;97361.25;;;11.70;73.87
9746;BME280;4912;50.836;12.958;2023-02-23T03:26:34;97362.00;;;11.70;73.71
9746;BME280;4912;50.836;12.958;2023-02-23T03:29:21;97364.44;;;11.63;74.01
9746;BME280;4912;50.836;12.958;2023-02-23T03:32:13;97359.09;;;11.59;74.17
9746;BME280;4912;50.836;12.958;2023-02-23T03:35:03;97366.16;;;11.60;74.11
9746;BME280;4912;50.836;12.958;2023-02-23T03:37:49;97367.41;;;11.59;73.93
9746;BME280;4912;50.836;12.958;2023-02-23T03:40:36;97364.50;;;11.48;74.15
9746;BME280;4912;50.836;12.958;2023-02-23T03:43:26;97369.53;;;11.29;75.23
9746;BME280;4912;50.836;12.958;2023-02-23T03:46:14;97371.50;;;11.08;76.22
9746;BME280;4912;50.836;12.958;2023-02-23T03:49:01;97366.97;;;10.91;77.19
9746;BME280;4912;50.836;12.958;2023-02-23T03:51:45;97360.72;;;10.76;77.98
9746;BME280;4912;50.836;12.958;2023-02-23T03:54:31;97365.31;;;10.64;78.72
9746;BME280;4912;50.836;12.958;2023-02-23T03:57:16;97360.16;;;10.57;79.17
9746;BME280;4912;50.836;12.958;2023-02-23T04:00:04;97366.25;;;10.61;79.39
9746;BME280;4912;50.836;12.958;2023-02-23T04:02:50;97366.09;;;10.64;79.10
9746;BME280;4912;50.836;12.958;2023-02-23T04:05:35;97366.63;;;10.68;78.91
9746;BME280;4912;50.836;12.958;2023-02-23T04:08:20;97367.78;;;10.77;78.37
9746;BME280;4912;50.836;12.958;2023-02-23T04:11:22;97371.56;;;10.79;78.19
9746;BME280;4912;50.836;12.958;2023-02-23T04:14:10;97375.97;;;10.86;77.90
9746;BME280;4912;50.836;12.958;2023-02-23T04:16:45;97384.00;;;10.84;77.87
9746;BME280;4912;50.836;12.958;2023-02-23T04:19:13;97381.03;;;10.87;77.80
9746;BME280;4912;50.836;12.958;2023-02-23T04:21:43;97378.03;;;10.91;77.54
9746;BME280;4912;50.836;12.958;2023-02-23T04:24:13;97384.31;;;10.71;78.31
9746;BME280;4912;50.836;12.958;2023-02-23T04:26:43;97394.34;;;10.54;79.63
9746;BME280;4912;50.836;12.958;2023-02-23T04:29:13;97392.22;;;10.63;79.55
9746;BME280;4912;50.836;12.958;2023-02-23T04:31:46;97388.56;;;10.72;78.86
9746;BME280;4912;50.836;12.958;2023-02-23T04:34:17;97386.66;;;10.78;78.51
9746;BME280;4912;50.836;12.958;2023-02-23T04:36:47;97384.84;;;10.75;78.45
9746;BME280;4912;50.836;12.958;2023-02-23T04:39:18;97390.50;;;10.66;77.90
9746;BME280;4912;50.836;12.958;2023-02-23T04:41:48;97386.59;;;10.58;77.82
9746;BME280;4912;50.836;12.958;2023-02-23T04:44:18;97384.97;;;10.51;77.79
9746;BME280;4912;50.836;12.958;2023-02-23T04:46:51;97387.66;;;10.46;78.02
9746;BME280;4912;50.836;12.958;2023-02-23T04:49:21;97383.47;;;10.36;78.86
9746;BME280;4912;50.836;12.958;2023-02-23T04:51:52;97390.69;;;10.33;79.00
9746;BME280;4912;50.836;12.958;2023-02-23T04:54:22;97387.06;;;10.27;79.24
9746;BME280;4912;50.836;12.958;2023-02-23T04:56:52;97388.78;;;10.24;79.45
9746;BME280;4912;50.836;12.958;2023-02-23T04:59:22;97383.72;;;10.23;79.53
9746;BME280;4912;50.836;12.958;2023-02-23T05:01:55;97386.03;;;10.24;79.34
9746;BME280;4912;50.836;12.958;2023-02-23T05:04:25;97392.03;;;10.23;79.85
9746;BME280;4912;50.836;12.958;2023-02-23T05:06:55;97397.56;;;10.23;80.14
9746;BME280;4912;50.836;12.958;2023-02-23T05:09:26;97396.13;;;10.27;80.85
9746;BME280;4912;50.836;12.958;2023-02-23T05:11:56;97408.72;;;10.29;80.82
9746;BME280;4912;50.836;12.958;2023-02-23T05:14:26;97409.19;;;10.27;81.29
9746;BME280;4912;50.836;12.958;2023-02-23T05:16:58;97404.22;;;10.31;81.35
9746;BME280;4912;50.836;12.958;2023-02-23T05:19:29;97401.09;;;10.23;81.38
9746;BME280;4912;50.836;12.958;2023-02-23T05:21:59;97412.72;;;10.27;80.81
9746;BME280;4912;50.836;12.958;2023-02-23T05:24:29;97407.84;;;10.22;81.08
9746;BME280;4912;50.836;12.958;2023-02-23T05:26:59;97412.63;;;10.22;81.16
9746;BME280;4912;50.836;12.958;2023-02-23T05:29:29;97418.16;;;10.22;81.33
9746;BME280;4912;50.836;12.958;2023-02-23T05:32:01;97413.84;;;10.21;81.19
9746;BME280;4912;50.836;12.958;2023-02-23T05:34:32;97408.78;;;10.19;81.42
9746;BME280;4912;50.836;12.958;2023-02-23T05:37:04;97401.75;;;10.18;81.39
9746;BME280;4912;50.836;12.958;2023-02-23T05:39:35;97413.28;;;10.17;81.79
9746;BME280;4912;50.836;12.958;2023-02-23T05:42:05;97414.19;;;10.14;82.09
9746;BME280;4912;50.836;12.958;2023-02-23T05:44:35;97415.63;;;10.09;82.52
9746;BME280;4912;50.836;12.958;2023-02-23T05:47:08;97410.56;;;10.08;82.68
9746;BME280;4912;50.836;12.958;2023-02-23T05:49:38;97410.84;;;10.10;83.00
9746;BME280;4912;50.836;12.958;2023-02-23T05:52:09;97414.69;;;10.12;82.85
9746;BME280;4912;50.836;12.958;2023-02-23T05:54:39;97407.63;;;10.11;82.00
9746;BME280;4912;50.836;12.958;2023-02-23T05:57:09;97411.31;;;10.08;82.31
9746;BME280;4912;50.836;12.958;2023-02-23T05:59:39;97417.34;;;10.07;82.21
9746;BME280;4912;50.836;12.958;2023-02-23T06:02:12;97412.84;;;9.95;82.54
9746;BME280;4912;50.836;12.958;2023-02-23T06:04:42;97417.88;;;9.96;82.92
9746;BME280;4912;50.836;12.958;2023-02-23T06:07:12;97412.94;;;10.00;83.19
9746;BME280;4912;50.836;12.958;2023-02-23T06:09:42;97410.44;;;10.02;82.95
9746;BME280;4912;50.836;12.958;2023-02-23T06:12:12;97407.22;;;10.04;82.52
9746;BME280;4912;50.836;12.958;2023-02-23T06:14:42;97415.03;;;10.05;82.42
9746;BME280;4912;50.836;12.958;2023-02-23T06:17:15;97417.34;;;10.07;82.68
9746;BME280;4912;50.836;12.958;2023-02-23T06:19:46;97419.44;;;10.12;83.55
9746;BME280;4912;50.836;12.958;2023-02-23T06:22:16;97418.34;;;10.18;83.86
9746;BME280;4912;50.836;12.958;2023-02-23T06:24:46;97414.91;;;10.23;83.55
9746;BME280;4912;50.836;12.958;2023-02-23T06:27:17;97411.13;;;10.36;83.02
9746;BME280;4912;50.836;12.958;2023-02-23T06:29:47;97422.75;;;10.40;82.58
9746;BME280;4912;50.836;12.958;2023-02-23T06:32:19;97426.06;;;10.44;82.93
9746;BME280;4912;50.836;12.958;2023-02-23T06:34:50;97420.72;;;10.55;81.72
9746;BME280;4912;50.836;12.958;2023-02-23T06:37:20;97422.66;;;10.63;81.27
9746;BME280;4912;50.836;12.958;2023-02-23T06:39:50;97430.28;;;10.68;80.43
9746;BME280;4912;50.836;12.958;2023-02-23T06:42:20;97434.38;;;10.73;79.73
9746;BME280;4912;50.836;12.958;2023-02-23T06:44:50;97433.44;;;10.76;79.40
9746;BME280;4912;50.836;12.958;2023-02-23T06:47:23;97437.81;;;10.68;79.62
9746;BME280;4912;50.836;12.958;2023-02-23T06:49:53;97438.97;;;10.76;79.52
9746;BME280;4912;50.836;12.958;2023-02-23T06:52:25;97436.97;;;10.77;79.19
9746;BME280;4912;50.836;12.958;2023-02-23T06:54:55;97437.63;;;10.86;79.02
9746;BME280;4912;50.836;12.958;2023-02-23T06:57:26;97437.31;;;10.84;78.98
9746;BME280;4912;50.836;12.958;2023-02-23T06:59:56;97438.75;;;10.80;79.28
9746;BME280;4912;50.836;12.958;2023-02-23T07:02:30;97438.75;;;10.80;79.31
9746;BME280;4912;50.836;12.958;2023-02-23T07:05:00;97433.41;;;10.91;79.14
9746;BME280;4912;50.836;12.958;2023-02-23T07:07:30;97440.38;;;11.01;78.68
9746;BME280;4912;50.836;12.958;2023-02-23T07:10:01;97441.22;;;11.07;78.32
9746;BME280;4912;50.836;12.958;2023-02-23T07:12:31;97438.81;;;11.15;78.17
9746;BME280;4912;50.836;12.958;2023-02-23T07:15:02;97439.66;;;11.21;78.12
9746;BME280;4912;50.836;12.958;2023-02-23T07:17:35;97440.25;;;11.25;78.11
9746;BME280;4912;50.836;12.958;2023-02-23T07:20:05;97440.78;;;11.29;77.82
9746;BME280;4912;50.836;12.958;2023-02-23T07:22:36;97431.88;;;11.39;77.58
9746;BME280;4912;50.836;12.958;2023-02-23T07:25:07;97434.44;;;11.43;76.89
9746;BME280;4912;50.836;12.958;2023-02-23T07:27:38;97435.25;;;11.49;76.77
9746;BME280;4912;50.836;12.958;2023-02-23T07:30:08;97436.03;;;11.49;76.75
9746;BME280;4912;50.836;12.958;2023-02-23T07:32:42;97432.09;;;11.56;76.39
9746;BME280;4912;50.836;12.958;2023-02-23T07:35:12;97432.38;;;11.58;76.55
9746;BME280;4912;50.836;12.958;2023-02-23T07:37:42;97446.25;;;11.58;76.28
9746;BME280;4912;50.836;12.958;2023-02-23T07:40:12;97443.13;;;11.71;76.08
9746;BME280;4912;50.836;12.958;2023-02-23T07:42:43;97435.88;;;11.73;75.40
9746;BME280;4912;50.836;12.958;2023-02-23T07:45:13;97440.06;;;11.83;75.22
9746;BME280;4912;50.836;12.958;2023-02-23T07:47:46;97442.97;;;11.95;74.89
9746;BME280;4912;50.836;12.958;2023-02-23T07:50:16;97439.75;;;12.02;74.34
9746;BME280;4912;50.836;12.958;2023-02-23T07:52:46;97442.94;;;12.15;73.84
9746;BME280;4912;50.836;12.958;2023-02-23T07:55:17;97445.56;;;12.24;73.54
9746;BME280;4912;50.836;12.958;2023-02-23T07:57:48;97445.16;;;12.31;73.29
9746;BME280;4912;50.836;12.958;2023-02-23T08:00:18;97445.50;;;12.44;72.97
9746;BME280;4912;50.836;12.958;2023-02-23T08:02:51;97451.81;;;12.45;72.86
9746;BME280;4912;50.836;12.958;2023-02-23T08:05:21;97445.84;;;12.52;72.76
9746;BME280;4912;50.836;12.958;2023-02-23T08:07:52;97454.50;;;12.59;72.37
9746;BME280;4912;50.836;12.958;2023-02-23T08:10:23;97458.63;;;12.69;72.11
9746;BME280;4912;50.836;12.958;2023-02-23T08:12:54;97447.81;;;12.71;72.12
9746;BME280;4912;50.836;12.958;2023-02-23T08:15:24;97451.13;;;12.76;71.25
9746;BME280;4912;50.836;12.958;2023-02-23T08:17:56;97453.94;;;12.81;71.18
9746;BME280;4912;50.836;12.958;2023-02-23T08:20:27;97449.38;;;12.78;70.94
9746;BME280;4912;50.836;12.958;2023-02-23T08:22:57;97450.41;;;12.81;71.38
9746;BME280;4912;50.836;12.958;2023-02-23T08:25:27;97457.00;;;12.83;70.82
9746;BME280;4912;50.836;12.958;2023-02-23T08:27:58;97450.44;;;12.86;70.40
9746;BME280;4912;50.836;12.958;2023-02-23T08:30:30;97452.03;;;12.93;69.93
9746;BME280;4912;50.836;12.958;2023-02-23T08:33:03;97450.00;;;12.93;70.18
9746;BME280;4912;50.836;12.958;2023-02-23T08:35:33;97455.38;;;13.02;69.76
9746;BME280;4912;50.836;12.958;2023-02-23T08:38:04;97454.03;;;13.18;69.67
9746;BME280;4912;50.836;12.958;2023-02-23T08:40:34;97449.88;;;13.39;69.13
9746;BME280;4912;50.836;12.958;2023-02-23T08:43:04;97451.44;;;13.46;68.50
9746;BME280;4912;50.836;12.958;2023-02-23T08:45:34;97460.25;;;13.44;68.02
9746;BME280;4912;50.836;12.958;2023-02-23T08:48:07;97449.16;;;13.44;67.82
9746;BME280;4912;50.836;12.958;2023-02-23T08:50:37;97454.53;;;13.53;67.94
9746;BME280;4912;50.836;12.958;2023-02-23T08:53:07;97452.72;;;13.50;67.97
9746;BME280;4912;50.836;12.958;2023-02-23T08:55:37;97449.03;;;13.65;67.72
9746;BME280;4912;50.836;12.958;2023-02-23T08:58:07;97451.66;;;13.90;67.15
9746;BME280;4912;50.836;12.958;2023-02-23T09:00:38;97454.47;;;13.96;66.44
9746;BME280;4912;50.836;12.958;2023-02-23T09:03:11;97450.38;;;13.86;66.05
9746;BME280;4912;50.836;12.958;2023-02-23T09:05:41;97444.53;;;13.78;66.36
9746;BME280;4912;50.836;12.958;2023-02-23T09:08:12;97449.84;;;13.76;66.61
9746;BME280;4912;50.836;12.958;2023-02-23T09:10:42;97443.03;;;13.77;66.56
9746;BME280;4912;50.836;12.958;2023-02-23T09:13:15;97450.66;;;13.88;66.06
9746;BME280;4912;50.836;12.958;2023-02-23T09:15:45;97451.00;;;14.12;65.46
9746;BME280;4912;50.836;12.958;2023-02-23T09:18:19;97454.97;;;14.59;63.75
9746;BME280;4912;50.836;12.958;2023-02-23T09:20:53;97452.69;;;14.80;62.80
9746;BME280;4912;50.836;12.958;2023-02-23T09:23:26;97448.66;;;15.03;62.29
9746;BME280;4912;50.836;12.958;2023-02-23T09:26:00;97450.69;;;15.42;60.62
9746;BME280;4912;50.836;12.958;2023-02-23T09:28:31;97449.34;;;15.76;59.34
9746;BME280;4912;50.836;12.958;2023-02-23T09:31:03;97448.06;;;15.88;59.47
9746;BME280;4912;50.836;12.958;2023-02-23T09:33:37;97447.47;;;16.07;58.81
9746;BME280;4912;50.836;12.958;2023-02-23T09:36:08;97451.75;;;16.19;57.87
9746;BME280;4912;50.836;12.958;2023-02-23T09:38:42;97449.84;;;16.38;57.83
9746;BME280;4912;50.836;12.958;2023-02-23T09:41:26;97451.84;;;16.49;56.52
9746;BME280;4912;50.836;12.958;2023-02-23T09:44:09;97440.28;;;16.74;56.61
9746;BME280;4912;50.836;12.958;2023-02-23T09:46:48;97449.34;;;16.86;55.73
9746;BME280;4912;50.836;12.958;2023-02-23T09:49:27;97456.13;;;17.26;55.51
9746;BME280;4912;50.836;12.958;2023-02-23T09:51:59;97450.50;;;17.32;54.90
9746;BME280;4912;50.836;12.958;2023-02-23T09:54:31;97451.72;;;17.66;54.23
9746;BME280;4912;50.836;12.958;2023-02-23T09:57:04;97446.59;;;17.70;52.74
9746;BME280;4912;50.836;12.958;2023-02-23T09:59:39;97450.13;;;17.95;53.25
9746;BME280;4912;50.836;12.958;2023-02-23T10:02:15;97443.81;;;18.13;52.70
9746;BME280;4912;50.836;12.958;2023-02-23T10:04:56;97440.88;;;18.43;51.39
9746;BME280;4912;50.836;12.958;2023-02-23T10:07:30;97442.84;;;18.48;50.86
9746;BME280;4912;50.836;12.958;2023-02-23T10:10:10;97447.78;;;18.61;50.46
9746;BME280;4912;50.836;12.958;2023-02-23T10:12:49;97442.53;;;18.89;50.28
9746;BME280;4912;50.836;12.958;2023-02-23T10:15:25;97446.69;;;18.83;49.35
9746;BME280;4912;50.836;12.958;2023-02-23T10:18:02;97445.78;;;18.93;49.50
9746;BME280;4912;50.836;12.958;2023-02-23T10:20:45;97450.53;;;18.98;49.37
9746;BME280;4912;50.836;12.958;2023-02-23T10:23:21;97441.81;;;19.02;49.12
9746;BME280;4912;50.836;12.958;2023-02-23T10:25:58;97453.69;;;18.76;49.73
9746;BME280;4912;50.836;12.958;2023-02-23T10:28:32;97443.59;;;19.18;49.16
9746;BME280;4912;50.836;12.958;2023-02-23T10:31:08;97439.03;;;19.02;48.72
9746;BME280;4912;50.836;12.958;2023-02-23T10:33:49;97445.94;;;18.82;48.65
9746;BME280;4912;50.836;12.958;2023-02-23T10:36:27;97446.06;;;19.08;49.18
9746;BME280;4912;50.836;12.958;2023-02-23T10:39:02;97443.78;;;19.52;47.99
9746;BME280;4912;50.836;12.958;2023-02-23T10:41:34;97439.59;;;19.58;47.92
9746;BME280;4912;50.836;12.958;2023-02-23T10:44:09;97444.91;;;19.75;47.70
9746;BME280;4912;50.836;12.958;2023-02-23T10:46:48;97447.91;;;19.64;47.61
9746;BME280;4912;50.836;12.958;2023-02-23T10:49:21;97441.13;;;19.28;47.78
9746;BME280;4912;50.836;12.958;2023-02-23T10:51:58;97442.38;;;18.81;49.23
9746;BME280;4912;50.836;12.958;2023-02-23T10:54:39;97447.03;;;18.60;50.51
9746;BME280;4912;50.836;12.958;2023-02-23T10:57:20;97441.25;;;18.34;50.73
9746;BME280;4912;50.836;12.958;2023-02-23T10:59:57;97449.31;;;18.00;51.83
9746;BME280;4912;50.836;12.958;2023-02-23T11:02:59;97442.22;;;17.75;52.90
9746;BME280;4912;50.836;12.958;2023-02-23T11:05:37;97445.50;;;17.79;53.18
9746;BME280;4912;50.836;12.958;2023-02-23T11:08:23;97441.50;;;17.69;53.21
9746;BME280;4912;50.836;12.958;2023-02-23T11:11:05;97439.97;;;17.43;53.94
9746;BME280;4912;50.836;12.958;2023-02-23T11:13:38;97431.59;;;17.43;54.37
9746;BME280;4912;50.836;12.958;2023-02-23T11:16:10;97431.59;;;17.43;54.52
9746;BME280;4912;50.836;12.958;2023-02-23T11:18:41;97438.97;;;17.41;54.58
9746;BME280;4912;50.836;12.958;2023-02-23T11:21:21;97432.97;;;17.31;55.18
9746;BME280;4912;50.836;12.958;2023-02-23T11:23:56;97431.09;;;17.39;55.75
9746;BME280;4912;50.836;12.958;2023-02-23T11:26:28;97424.59;;;17.01;55.22
9746;BME280;4912;50.836;12.958;2023-02-23T11:29:02;97433.56;;;16.89;56.30
9746;BME280;4912;50.836;12.958;2023-02-23T11:31:36;97418.06;;;17.47;54.72
9746;BME280;4912;50.836;12.958;2023-02-23T11:37:01;97419.78;;;18.93;49.74
9746;BME280;4912;50.836;12.958;2023-02-23T11:39:35;97417.13;;;19.45;48.78
9746;BME280;4912;50.836;12.958;2023-02-23T11:42:13;97398.53;;;20.21;47.20
9746;BME280;4912;50.836;12.958;2023-02-23T11:44:48;97410.53;;;20.69;45.13
9746;BME280;4912;50.836;12.958;2023-02-23T11:47:21;97402.03;;;20.82;44.31
9746;BME280;4912;50.836;12.958;2023-02-23T11:49:52;97397.28;;;21.32;43.49
9746;BME280;4912;50.836;12.958;2023-02-23T11:52:23;97394.22;;;21.79;42.30
9746;BME280;4912;50.836;12.958;2023-02-23T11:54:57;97391.28;;;21.63;42.63
9746;BME280;4912;50.836;12.958;2023-02-23T11:57:30;97388.19;;;21.05;43.11
9746;BME280;4912;50.836;12.958;2023-02-23T12:00:09;97392.47;;;20.30;44.48
9746;BME280;4912;50.836;12.958;2023-02-23T12:02:45;97391.97;;;19.79;46.38
9746;BME280;4912;50.836;12.958;2023-02-23T12:05:21;97394.81;;;19.08;47.90
9746;BME280;4912;50.836;12.958;2023-02-23T12:07:54;97394.00;;;19.26;47.84
9746;BME280;4912;50.836;12.958;2023-02-23T12:10:30;97391.91;;;19.13;48.11
9746;BME280;4912;50.836;12.958;2023-02-23T12:13:04;97393.34;;;19.20;48.17
9746;BME280;4912;50.836;12.958;2023-02-23T12:15:42;97387.75;;;18.88;48.53
9746;BME280;4912;50.836;12.958;2023-02-23T12:18:19;97387.84;;;18.83;49.09
9746;BME280;4912;50.836;12.958;2023-02-23T12:20:59;97384.78;;;18.30;50.62
9746;BME280;4912;50.836;12.958;2023-02-23T12:23:36;97392.31;;;17.79;52.24
9746;BME280;4912;50.836;12.958;2023-02-23T12:26:12;97386.38;;;17.64;53.74
9746;BME280;4912;50.836;12.958;2023-02-23T12:28:48;97393.00;;;17.36;54.12
9746;BME280;4912;50.836;12.958;2023-02-23T12:31:25;97388.06;;;16.94;55.68
9746;BME280;4912;50.836;12.958;2023-02-23T12:33:58;97382.91;;;16.68;57.16
9746;BME280;4912;50.836;12.958;2023-02-23T12:36:33;97383.06;;;16.81;57.03
9746;BME280;4912;50.836;12.958;2023-02-23T12:39:10;97381.81;;;16.82;56.40
9746;BME280;4912;50.836;12.958;2023-02-23T12:41:50;97379.00;;;16.82;57.16
9746;BME280;4912;50.836;12.958;2023-02-23T12:44:30;97376.09;;;17.23;56.10
9746;BME280;4912;50.836;12.958;2023-02-23T12:47:06;97371.53;;;17.93;53.92
9746;BME280;4912;50.836;12.958;2023-02-23T12:49:42;97368.13;;;18.00;53.14
9746;BME280;4912;50.836;12.958;2023-02-23T12:52:15;97369.94;;;17.79;53.30
9746;BME280;4912;50.836;12.958;2023-02-23T12:54:47;97378.13;;;17.47;54.06
9746;BME280;4912;50.836;12.958;2023-02-23T12:57:24;97378.25;;;17.36;54.67
9746;BME280;4912;50.836;12.958;2023-02-23T13:06:08;97363.66;;;16.64;57.59
9746;BME280;4912;50.836;12.958;2023-02-23T13:08:48;97367.16;;;16.70;57.28
9746;BME280;4912;50.836;12.958;2023-02-23T13:11:27;97363.59;;;16.70;57.80
9746;BME280;4912;50.836;12.958;2023-02-23T13:14:32;97361.72;;;16.84;56.92
9746;BME280;4912;50.836;12.958;2023-02-23T13:17:12;97364.84;;;16.74;56.99
9746;BME280;4912;50.836;12.958;2023-02-23T13:19:53;97355.44;;;16.77;57.29
9746;BME280;4912;50.836;12.958;2023-02-23T13:22:28;97355.09;;;16.87;57.03
9746;BME280;4912;50.836;12.958;2023-02-23T13:25:03;97360.47;;;16.85;57.29
9746;BME280;4912;50.836;12.958;2023-02-23T13:27:44;97359.44;;;17.12;56.95
9746;BME280;4912;50.836;12.958;2023-02-23T13:30:21;97350.69;;;17.21;56.25
9746;BME280;4912;50.836;12.958;2023-02-23T13:32:52;97357.81;;;16.92;57.06
9746;BME280;4912;50.836;12.958;2023-02-23T13:35:23;97357.25;;;16.99;56.75
9746;BME280;4912;50.836;12.958;2023-02-23T13:37:56;97365.00;;;16.88;57.05
9746;BME280;4912;50.836;12.958;2023-02-23T13:40:34;97364.94;;;16.58;57.96
9746;BME280;4912;50.836;12.958;2023-02-23T13:43:08;97363.47;;;16.10;59.73
9746;BME280;4912;50.836;12.958;2023-02-23T13:45:51;97362.22;;;16.06;60.34
9746;BME280;4912;50.836;12.958;2023-02-23T13:48:33;97357.16;;;16.04;60.30
9746;BME280;4912;50.836;12.958;2023-02-23T13:51:27;97355.94;;;15.94;61.53
9746;BME280;4912;50.836;12.958;2023-02-23T13:54:04;97358.41;;;16.09;61.16
9746;BME280;4912;50.836;12.958;2023-02-23T13:56:39;97361.16;;;16.20;60.93
9746;BME280;4912;50.836;12.958;2023-02-23T13:59:14;97365.22;;;16.19;61.17
9746;BME280;4912;50.836;12.958;2023-02-23T14:01:49;97355.63;;;16.03;61.66
9746;BME280;4912;50.836;12.958;2023-02-23T14:04:22;97355.19;;;15.93;61.76
9746;BME280;4912;50.836;12.958;2023-02-23T14:07:02;97351.13;;;15.94;62.18
9746;BME280;4912;50.836;12.958;2023-02-23T14:09:34;97352.19;;;15.86;61.86
9746;BME280;4912;50.836;12.958;2023-02-23T14:12:12;97352.97;;;15.81;62.09